Time;durP1;ratioP1;P1;durP2;ratioP2;P2;SDS_P1;SDS_P2;PMS_P1;PMS_P2;Temp;Humidity;BMP_temperature;BMP_pressure;BME280_temperature;BME280_humidity;BME280_pressure;Samples;Min_cycle;Max_cycle;Signal;HPM_P1;HPM_P2
2023/03/18 00:01:53;;;;;;;;;;;;;;;9.49;65.99;96046.41;5075496;28;19939;-81
2023/03/18 00:04:20;;;;;;;;;;;;;;;9.48;66.31;96044.78;5074984;28;19988;-84
2023/03/18 00:06:45;;;;;;;;;;;;;;;9.48;66.58;96046.59;5075500;28;20295;-82
2023/03/18 00:09:12;;;;;;;;;;;;;;;9.46;65.30;96046.03;5074734;28;19960;-83
2023/03/18 00:11:39;;;;;;;;;;;;;;;9.43;64.13;96041.22;5075507;28;19940;-83
2023/03/18 00:14:05;;;;;;;;;;;;;;;9.43;63.81;96041.22;5074756;28;19945;-67
2023/03/18 00:16:31;;;;;;;;;;;;;;;9.41;65.36;96051.09;5074727;28;19962;-87
2023/03/18 00:18:57;;;;;;;;;;;;;;;9.39;64.91;96055.78;5074632;28;20033;-81
2023/03/18 00:21:23;;;;;;;;;;;;;;;9.35;65.88;96056.22;5075386;28;20393;-82
2023/03/18 00:23:52;;;;;;;;;;;;;;;9.34;66.13;96061.66;5074458;28;19941;-80
2023/03/18 00:26:19;;;;;;;;;;;;;;;9.31;65.95;96065.53;5074527;28;19954;-80
2023/03/18 00:28:45;;;;;;;;;;;;;;;9.29;66.01;96061.53;5074890;28;19954;-80
2023/03/18 00:31:12;;;;;;;;;;;;;;;9.27;66.20;96072.19;5074352;28;19957;-82
2023/03/18 00:33:39;;;;;;;;;;;;;;;9.25;66.93;96079.47;5075153;28;19942;-68
2023/03/18 00:36:12;;;;;;;;;;;;;;;9.24;66.77;96083.13;5074054;28;20355;-68
2023/03/18 00:38:40;;;;;;;;;;;;;;;9.22;67.24;96074.69;5073603;28;20002;-68
2023/03/18 00:41:12;;;;;;;;;;;;;;;9.20;67.87;96083.75;5074736;28;19944;-68
2023/03/18 00:43:45;;;;;;;;;;;;;;;9.19;67.92;96087.41;5074710;28;19940;-68
2023/03/18 00:46:12;;;;;;;;;;;;;;;9.17;68.56;96094.66;5074984;28;19939;-68
2023/03/18 00:48:38;;;;;;;;;;;;;;;9.13;68.05;96091.66;5074240;28;19978;-68
2023/03/18 00:51:04;;;;;;;;;;;;;;;9.09;68.01;96083.47;5074096;28;20396;-80
2023/03/18 00:53:30;;;;;;;;;;;;;;;9.08;69.64;96088.91;5074068;28;20391;-67
2023/03/18 00:55:55;;;;;;;;;;;;;;;9.06;68.87;96093.56;5073629;28;19943;-67
2023/03/18 00:58:21;;;;;;;;;;;;;;;9.03;68.53;96086.13;5073963;28;19929;-68
2023/03/18 01:00:47;;;;;;;;;;;;;;;9.02;68.34;96084.56;5074758;28;19949;-68
2023/03/18 01:03:13;;;;;;;;;;;;;;;9.00;69.12;96094.44;5073936;28;19941;-67
2023/03/18 01:05:39;;;;;;;;;;;;;;;8.96;68.46;96083.59;5074652;28;19961;-68
2023/03/18 01:08:05;;;;;;;;;;;;;;;8.95;68.72;96082.00;5074065;28;20147;-67
2023/03/18 01:10:31;;;;;;;;;;;;;;;8.94;68.90;96083.84;5074514;28;19998;-69
2023/03/18 01:12:57;;;;;;;;;;;;;;;8.94;68.36;96077.78;5073234;28;19946;-67
2023/03/18 01:15:23;;;;;;;;;;;;;;;8.95;68.73;96079.38;5073732;28;19959;-67
2023/03/18 01:17:51;;;;;;;;;;;;;;;8.95;68.65;96079.38;5073682;28;19953;-67
2023/03/18 01:20:18;;;;;;;;;;;;;;;8.96;69.03;96073.13;5073689;28;19939;-67
2023/03/18 01:22:44;;;;;;;;;;;;;;;8.94;69.53;96073.38;5073691;28;19972;-68
2023/03/18 01:25:11;;;;;;;;;;;;;;;8.96;69.22;96077.56;5073672;28;19935;-67
2023/03/18 01:27:37;;;;;;;;;;;;;;;8.95;68.05;96074.16;5073794;28;20338;-67
2023/03/18 01:30:05;;;;;;;;;;;;;;;8.93;67.85;96068.34;5073726;28;19970;-85
2023/03/18 01:32:31;;;;;;;;;;;;;;;8.91;68.33;96076.41;5075990;28;19963;-83
2023/03/18 01:34:58;;;;;;;;;;;;;;;8.89;68.56;96075.03;5073251;28;20325;-85
2023/03/18 01:37:24;;;;;;;;;;;;;;;8.86;68.62;96081.50;5073509;28;19954;-85
2023/03/18 01:39:50;;;;;;;;;;;;;;;8.85;68.54;96079.09;5074160;28;19939;-85
2023/03/18 01:42:20;;;;;;;;;;;;;;;8.83;66.58;96068.03;5074408;28;19954;-86
2023/03/18 01:44:46;;;;;;;;;;;;;;;8.80;65.80;96063.22;5074203;28;20264;-81
2023/03/18 01:47:15;;;;;;;;;;;;;;;8.80;67.49;96076.31;5074374;28;19944;-69
2023/03/18 01:49:43;;;;;;;;;;;;;;;8.78;68.22;96078.31;5076075;28;20314;-84
2023/03/18 01:52:11;;;;;;;;;;;;;;;8.77;68.03;96074.91;5077291;28;19947;-88
2023/03/18 01:54:40;;;;;;;;;;;;;;;8.78;67.06;96071.31;5077543;28;20391;-86
2023/03/18 01:57:06;;;;;;;;;;;;;;;8.77;67.43;96067.06;5077509;28;20299;-86
2023/03/18 01:59:34;;;;;;;;;;;;;;;8.75;67.45;96069.09;5077962;28;20325;-87
2023/03/18 02:02:02;;;;;;;;;;;;;;;8.75;68.09;96074.34;5077516;28;19963;-90
2023/03/18 02:04:33;;;;;;;;;;;;;;;8.74;66.30;96063.09;5078108;28;19942;-88
2023/03/18 02:07:00;;;;;;;;;;;;;;;8.74;67.61;96067.53;5078162;28;19943;-68
2023/03/18 02:09:26;;;;;;;;;;;;;;;8.72;68.06;96075.56;5077854;28;19951;-68
2023/03/18 02:11:51;;;;;;;;;;;;;;;8.72;68.10;96083.41;5059977;28;19946;-68
2023/03/18 02:14:19;;;;;;;;;;;;;;;8.70;68.21;96074.19;5077025;28;19931;-68
2023/03/18 02:16:47;;;;;;;;;;;;;;;8.68;67.32;96071.78;5076948;28;20383;-68
2023/03/18 02:19:25;;;;;;;;;;;;;;;8.67;67.43;96056.31;5075709;28;20130;-67
2023/03/18 02:21:57;;;;;;;;;;;;;;;8.65;66.89;96068.78;5075738;28;20304;-69
2023/03/18 02:24:40;;;;;;;;;;;;;;;8.64;66.67;96061.97;5058973;28;19945;-69
2023/03/18 02:27:19;;;;;;;;;;;;;;;8.64;68.31;96067.22;5077171;28;19986;-67
2023/03/18 02:29:46;;;;;;;;;;;;;;;8.64;68.57;96072.44;5077143;28;19964;-67
2023/03/18 02:32:13;;;;;;;;;;;;;;;8.64;68.89;96082.88;5077517;28;19941;-67
2023/03/18 02:34:40;;;;;;;;;;;;;;;8.62;68.56;96072.63;5076604;28;20426;-67
2023/03/18 02:37:06;;;;;;;;;;;;;;;8.61;67.41;96068.44;5076482;28;19955;-67
2023/03/18 02:39:32;;;;;;;;;;;;;;;8.58;66.39;96063.63;5077312;28;19939;-68
2023/03/18 02:41:59;;;;;;;;;;;;;;;8.57;67.58;96067.28;5076509;28;19936;-86
2023/03/18 02:44:26;;;;;;;;;;;;;;;8.53;67.27;96059.03;5076433;28;19938;-69
2023/03/18 02:46:52;;;;;;;;;;;;;;;8.54;68.46;96067.69;5077233;28;19939;-69
2023/03/18 02:49:19;;;;;;;;;;;;;;;8.53;68.42;96068.72;5076595;28;19983;-69
2023/03/18 02:51:45;;;;;;;;;;;;;;;8.51;68.14;96074.16;5076893;28;19944;-69
2023/03/18 02:54:12;;;;;;;;;;;;;;;8.51;68.20;96073.34;5077111;28;19939;-69
2023/03/18 02:56:39;;;;;;;;;;;;;;;8.49;68.57;96075.38;5076247;28;19939;-69
2023/03/18 02:59:05;;;;;;;;;;;;;;;8.46;68.61;96079.22;5074481;28;19947;-67
2023/03/18 03:01:31;;;;;;;;;;;;;;;8.44;68.90;96080.44;5076120;28;19937;-69
2023/03/18 03:03:57;;;;;;;;;;;;;;;8.43;68.99;96081.44;5075493;28;19947;-70
2023/03/18 03:06:24;;;;;;;;;;;;;;;8.43;68.69;96079.63;5076240;28;19943;-71
2023/03/18 03:08:50;;;;;;;;;;;;;;;8.41;68.77;96073.81;5075894;28;20400;-70
2023/03/18 03:11:16;;;;;;;;;;;;;;;8.40;67.73;96072.19;5076139;28;19938;-69
2023/03/18 03:13:44;;;;;;;;;;;;;;;8.38;67.83;96078.63;5076139;28;20381;-70
2023/03/18 03:16:11;;;;;;;;;;;;;;;8.36;67.84;96078.88;5075871;28;20398;-70
2023/03/18 03:18:37;;;;;;;;;;;;;;;8.34;68.36;96083.50;5075819;28;19933;-68
2023/03/18 03:21:04;;;;;;;;;;;;;;;8.32;68.39;96088.94;5075671;28;20341;-70
2023/03/18 03:23:30;;;;;;;;;;;;;;;8.28;68.97;96084.34;5075090;28;19933;-71
2023/03/18 03:25:56;;;;;;;;;;;;;;;8.25;69.43;96098.63;5076198;28;19945;-71
2023/03/18 03:28:22;;;;;;;;;;;;;;;8.24;69.60;96101.44;5074128;28;19977;-72
2023/03/18 03:30:49;;;;;;;;;;;;;;;8.20;67.88;96093.22;5075538;28;19943;-70
2023/03/18 03:33:14;;;;;;;;;;;;;;;8.14;69.33;96101.91;5076025;28;19955;-71
2023/03/18 03:35:40;;;;;;;;;;;;;;;8.12;69.54;96102.09;5075398;28;19939;-70
2023/03/18 03:38:07;;;;;;;;;;;;;;;8.09;69.11;96107.75;5075500;28;19992;-70
2023/03/18 03:40:33;;;;;;;;;;;;;;;8.09;69.91;96106.97;5076133;28;20280;-68
2023/03/18 03:42:59;;;;;;;;;;;;;;;8.08;70.12;96098.34;5074021;28;19947;-68
2023/03/18 03:45:24;;;;;;;;;;;;;;;8.07;69.52;96093.31;5075255;28;19961;-68
2023/03/18 03:47:51;;;;;;;;;;;;;;;8.07;69.14;96093.31;5075218;28;19961;-67
2023/03/18 03:50:17;;;;;;;;;;;;;;;8.05;69.63;96096.13;5075968;28;19960;-67
2023/03/18 03:52:43;;;;;;;;;;;;;;;8.02;69.40;96093.97;5075414;28;19946;-68
2023/03/18 03:55:11;;;;;;;;;;;;;;;8.00;69.78;96103.00;5075044;28;20036;-70
2023/03/18 03:57:37;;;;;;;;;;;;;;;7.96;70.00;96093.97;5075740;28;20386;-80
2023/03/18 04:00:06;;;;;;;;;;;;;;;7.92;70.00;96088.38;5075532;28;20434;-80
2023/03/18 04:02:32;;;;;;;;;;;;;;;7.90;70.28;96095.63;5074928;28;20299;-80
2023/03/18 04:04:57;;;;;;;;;;;;;;;7.88;70.29;96100.25;5074877;28;19939;-81
2023/03/18 04:07:23;;;;;;;;;;;;;;;7.85;70.40;96098.06;5074395;28;19950;-81
2023/03/18 04:09:50;;;;;;;;;;;;;;;7.83;70.06;96102.69;5074753;28;19956;-79
2023/03/18 04:12:19;;;;;;;;;;;;;;;7.80;70.43;96097.88;5073984;28;19936;-87
2023/03/18 04:14:46;;;;;;;;;;;;;;;7.77;70.62;96100.91;5074640;28;19940;-88
2023/03/18 04:17:12;;;;;;;;;;;;;;;7.74;70.76;96107.34;5073565;28;20377;-68
2023/03/18 04:19:38;;;;;;;;;;;;;;;7.73;70.84;96108.38;5074602;28;20027;-68
2023/03/18 04:22:04;;;;;;;;;;;;;;;7.73;70.86;96110.97;5075019;28;19948;-68
2023/03/18 04:24:30;;;;;;;;;;;;;;;7.73;70.75;96106.53;5074543;28;20338;-69
2023/03/18 04:26:56;;;;;;;;;;;;;;;7.73;69.10;96098.72;5074468;28;19967;-68
2023/03/18 04:29:22;;;;;;;;;;;;;;;7.71;70.03;96097.34;5074286;28;19967;-69
2023/03/18 04:31:48;;;;;;;;;;;;;;;7.69;70.33;96099.34;5074910;28;20332;-80
2023/03/18 04:34:14;;;;;;;;;;;;;;;7.65;70.47;96098.16;5074580;28;20259;-70
2023/03/18 04:36:39;;;;;;;;;;;;;;;7.60;70.57;96103.19;5074612;28;20022;-70
2023/03/18 04:39:05;;;;;;;;;;;;;;;7.56;70.88;96094.16;5074995;28;19996;-69
2023/03/18 04:41:31;;;;;;;;;;;;;;;7.51;71.38;96102.63;5074141;28;19939;-69
2023/03/18 04:43:57;;;;;;;;;;;;;;;7.46;71.28;96112.88;5074342;28;19943;-70
2023/03/18 04:46:23;;;;;;;;;;;;;;;7.42;71.42;96109.88;5074918;28;19933;-71
2023/03/18 04:48:49;;;;;;;;;;;;;;;7.40;72.16;96113.72;5073965;28;19939;-71
2023/03/18 04:51:15;;;;;;;;;;;;;;;7.36;72.06;96109.91;5074057;28;20029;-83
2023/03/18 04:53:40;;;;;;;;;;;;;;;7.35;72.35;96114.31;5074235;28;20054;-71
2023/03/18 04:56:07;;;;;;;;;;;;;;;7.35;72.08;96116.94;5073938;28;19987;-71
2023/03/18 04:58:33;;;;;;;;;;;;;;;7.36;72.28;96120.34;5074036;28;20338;-71
2023/03/18 05:00:59;;;;;;;;;;;;;;;7.36;72.32;96117.72;5074271;28;20004;-69
2023/03/18 05:03:25;;;;;;;;;;;;;;;7.35;72.10;96111.72;5073856;28;19943;-70
2023/03/18 05:05:51;;;;;;;;;;;;;;;7.34;71.48;96110.09;5074663;28;19983;-70
2023/03/18 05:08:17;;;;;;;;;;;;;;;7.29;71.84;96110.72;5074383;28;20265;-69
2023/03/18 05:10:43;;;;;;;;;;;;;;;7.26;71.68;96118.16;5073665;28;20349;-68
2023/03/18 05:13:09;;;;;;;;;;;;;;;7.23;71.68;96119.38;5073693;28;19935;-67
2023/03/18 05:15:36;;;;;;;;;;;;;;;7.19;71.71;96122.59;5073777;28;19962;-67
2023/03/18 05:18:03;;;;;;;;;;;;;;;7.15;71.37;96116.19;5073617;28;19940;-68
2023/03/18 05:20:29;;;;;;;;;;;;;;;7.11;71.68;96123.59;5074176;28;19942;-68
2023/03/18 05:22:55;;;;;;;;;;;;;;;7.08;72.02;96124.81;5074027;28;19951;-68
2023/03/18 05:25:21;;;;;;;;;;;;;;;7.06;72.48;96129.44;5074131;28;19938;-67
2023/03/18 05:27:48;;;;;;;;;;;;;;;7.04;72.42;96122.81;5073598;28;19978;-67
2023/03/18 05:30:14;;;;;;;;;;;;;;;7.00;72.23;96125.03;5074083;28;19960;-70
2023/03/18 05:32:41;;;;;;;;;;;;;;;6.97;72.18;96122.84;5073477;28;19949;-70
2023/03/18 05:35:08;;;;;;;;;;;;;;;6.94;72.33;96125.03;5073568;28;19942;-69
2023/03/18 05:37:33;;;;;;;;;;;;;;;6.93;72.58;96123.41;5073536;28;19954;-68
2023/03/18 05:40:00;;;;;;;;;;;;;;;6.89;72.48;96126.44;5073513;28;19943;-69
2023/03/18 05:42:26;;;;;;;;;;;;;;;6.88;72.81;96137.06;5074335;28;19946;-69
2023/03/18 05:44:53;;;;;;;;;;;;;;;6.87;72.94;96135.47;5073993;28;20378;-69
2023/03/18 05:47:19;;;;;;;;;;;;;;;6.82;72.71;96136.06;5073526;28;20414;-67
2023/03/18 05:49:47;;;;;;;;;;;;;;;6.81;72.82;96139.69;5073298;28;20419;-70
2023/03/18 05:52:15;;;;;;;;;;;;;;;6.80;72.71;96138.06;5073934;28;20283;-70
2023/03/18 05:54:41;;;;;;;;;;;;;;;6.79;72.92;96136.47;5074141;28;19946;-71
2023/03/18 05:57:07;;;;;;;;;;;;;;;6.79;73.07;96133.06;5073579;28;19941;-70
2023/03/18 05:59:33;;;;;;;;;;;;;;;6.78;73.16;96128.84;5074120;28;19967;-69
2023/03/18 06:01:59;;;;;;;;;;;;;;;6.76;73.35;96129.06;5073315;28;20385;-70
2023/03/18 06:04:26;;;;;;;;;;;;;;;6.75;73.38;96137.88;5074074;28;19944;-70
2023/03/18 06:06:52;;;;;;;;;;;;;;;6.79;73.26;96133.88;5073974;28;19936;-67
2023/03/18 06:09:18;;;;;;;;;;;;;;;6.80;73.52;96139.88;5073770;28;20411;-67
2023/03/18 06:11:44;;;;;;;;;;;;;;;6.84;73.02;96136.66;5073213;28;19939;-68
2023/03/18 06:14:10;;;;;;;;;;;;;;;6.90;73.25;96132.47;5073249;28;19933;-67
2023/03/18 06:16:36;;;;;;;;;;;;;;;6.96;73.20;96128.25;5073199;28;19942;-67
2023/03/18 06:19:03;;;;;;;;;;;;;;;6.98;72.90;96132.25;5073116;28;19940;-67
2023/03/18 06:21:30;;;;;;;;;;;;;;;7.01;73.23;96137.03;5073660;28;19941;-70
2023/03/18 06:23:56;;;;;;;;;;;;;;;7.04;73.51;96141.88;5073181;28;20403;-83
2023/03/18 06:26:22;;;;;;;;;;;;;;;7.18;73.33;96147.06;5072560;28;19961;-68
2023/03/18 06:28:48;;;;;;;;;;;;;;;7.39;73.33;96144.22;5073690;28;19944;-68
2023/03/18 06:31:14;;;;;;;;;;;;;;;7.57;72.76;96145.38;5072967;28;19956;-67
2023/03/18 06:33:39;;;;;;;;;;;;;;;7.69;72.43;96149.72;5073593;28;19977;-67
2023/03/18 06:36:06;;;;;;;;;;;;;;;7.79;72.25;96148.47;5075865;28;19978;-67
2023/03/18 06:38:32;;;;;;;;;;;;;;;7.89;72.16;96138.41;5076499;28;19947;-67
2023/03/18 06:40:58;;;;;;;;;;;;;;;8.10;71.56;96145.13;5076546;28;19961;-67
2023/03/18 06:43:25;;;;;;;;;;;;;;;8.46;71.21;96139.31;5076741;28;19934;-70
2023/03/18 06:45:51;;;;;;;;;;;;;;;8.73;70.78;96142.53;5076502;28;19942;-70
2023/03/18 06:48:18;;;;;;;;;;;;;;;9.16;69.94;96134.94;5077219;28;19945;-70
2023/03/18 06:50:44;;;;;;;;;;;;;;;9.72;68.75;96131.28;5076254;28;19955;-71
2023/03/18 06:53:11;;;;;;;;;;;;;;;10.29;67.17;96110.84;5076926;28;19948;-70
2023/03/18 06:55:37;;;;;;;;;;;;;;;10.76;65.87;96110.09;5076801;28;19946;-70
2023/03/18 06:58:04;;;;;;;;;;;;;;;11.29;63.62;96097.88;5076293;28;19951;-69
2023/03/18 07:00:30;;;;;;;;;;;;;;;11.77;59.83;96099.38;5074883;28;19940;-71
2023/03/18 07:02:56;;;;;;;;;;;;;;;12.14;59.52;96097.19;5076768;28;20042;-85
2023/03/18 07:05:22;;;;;;;;;;;;;;;12.42;58.56;96100.81;5076910;28;20370;-84
2023/03/18 07:07:49;;;;;;;;;;;;;;;12.87;57.29;96099.16;5076523;28;19943;-83
2023/03/18 07:10:20;;;;;;;;;;;;;;;13.19;55.86;96105.41;5076708;28;19968;-84
2023/03/18 07:12:46;;;;;;;;;;;;;;;13.30;53.21;96097.69;5075914;28;19942;-84
2023/03/18 07:15:12;;;;;;;;;;;;;;;13.40;54.13;96111.78;5076235;28;20375;-83
2023/03/18 07:17:38;;;;;;;;;;;;;;;13.59;53.99;96112.28;5075890;28;19943;-68
2023/03/18 07:20:06;;;;;;;;;;;;;;;13.79;52.77;96109.09;5076143;28;19934;-69
2023/03/18 07:22:31;;;;;;;;;;;;;;;13.98;52.40;96114.03;5075713;28;19950;-68
2023/03/18 07:24:57;;;;;;;;;;;;;;;14.23;52.43;96110.88;5076300;28;20339;-69
2023/03/18 07:27:23;;;;;;;;;;;;;;;14.43;51.44;96114.75;5075460;28;19965;-67
2023/03/18 07:29:49;;;;;;;;;;;;;;;14.48;51.63;96114.78;5057514;28;20072;-70
2023/03/18 07:32:17;;;;;;;;;;;;;;;14.49;51.55;96119.84;5076432;28;19949;-68
2023/03/18 07:34:43;;;;;;;;;;;;;;;14.63;50.83;96111.53;5075467;28;19948;-70
2023/03/18 07:37:09;;;;;;;;;;;;;;;14.73;51.49;96115.03;5075652;28;19961;-85
2023/03/18 07:39:36;;;;;;;;;;;;;;;14.85;51.03;96116.72;5075498;28;19939;-69
2023/03/18 07:42:02;;;;;;;;;;;;;;;14.99;50.79;96117.84;5075452;28;19942;-69
2023/03/18 07:44:28;;;;;;;;;;;;;;;15.08;50.25;96124.28;5075343;28;19984;-70
2023/03/18 07:46:54;;;;;;;;;;;;;;;15.20;50.99;96132.81;5075591;28;19946;-68
2023/03/18 07:49:20;;;;;;;;;;;;;;;15.35;50.96;96133.94;5074032;28;19945;-69
2023/03/18 07:51:46;;;;;;;;;;;;;;;15.50;50.82;96126.09;5075470;28;19941;-69
2023/03/18 07:54:13;;;;;;;;;;;;;;;15.72;49.74;96127.81;5075235;28;19943;-86
2023/03/18 07:56:38;;;;;;;;;;;;;;;15.85;50.13;96126.53;5074750;28;20414;-70
2023/03/18 07:59:04;;;;;;;;;;;;;;;15.90;46.56;96119.44;5073945;28;19970;-70
2023/03/18 08:01:31;;;;;;;;;;;;;;;15.95;47.86;96123.94;5073842;28;19940;-70
2023/03/18 08:03:57;;;;;;;;;;;;;;;15.92;48.40;96130.53;5073789;28;19943;-70
2023/03/18 08:06:24;;;;;;;;;;;;;;;15.71;46.86;96116.41;5075801;28;20353;-70
2023/03/18 08:08:49;;;;;;;;;;;;;;;15.64;45.73;96123.78;5075075;28;19951;-70
2023/03/18 08:11:15;;;;;;;;;;;;;;;15.61;46.56;96119.81;5074752;28;19963;-70
2023/03/18 08:13:41;;;;;;;;;;;;;;;15.49;48.49;96136.91;5074822;28;19944;-70
2023/03/18 08:16:07;;;;;;;;;;;;;;;15.43;44.34;96134.25;5075607;28;20300;-71
2023/03/18 08:18:34;;;;;;;;;;;;;;;15.34;44.68;96135.78;5073508;28;19962;-71
2023/03/18 08:21:00;;;;;;;;;;;;;;;15.42;44.86;96134.50;5075233;28;19941;-71
2023/03/18 08:23:26;;;;;;;;;;;;;;;15.53;45.99;96135.34;5073354;28;20399;-71
2023/03/18 08:25:52;;;;;;;;;;;;;;;15.67;44.73;96123.28;5074191;28;19943;-71
2023/03/18 08:28:18;;;;;;;;;;;;;;;15.75;45.06;96127.31;5074395;28;20435;-71
2023/03/18 08:30:45;;;;;;;;;;;;;;;15.87;46.11;96138.44;5074661;28;19956;-69
2023/03/18 08:33:11;;;;;;;;;;;;;;;16.05;43.89;96134.53;5075261;28;19942;-70
2023/03/18 08:35:39;;;;;;;;;;;;;;;16.20;44.43;96133.78;5074271;28;19938;-72
2023/03/18 08:38:05;;;;;;;;;;;;;;;16.35;41.08;96122.44;5074883;28;19952;-71
2023/03/18 08:40:33;;;;;;;;;;;;;;;16.39;43.75;96124.28;5074216;28;19940;-72
2023/03/18 08:42:59;;;;;;;;;;;;;;;16.27;43.20;96126.38;5074203;28;20311;-72
2023/03/18 08:45:27;;;;;;;;;;;;;;;16.31;43.67;96138.03;5074191;28;19972;-72
2023/03/18 08:47:54;;;;;;;;;;;;;;;16.31;43.16;96122.16;5074708;28;19941;-72
2023/03/18 08:50:19;;;;;;;;;;;;;;;16.25;43.69;96133.78;5074270;28;19953;-86
2023/03/18 08:52:46;;;;;;;;;;;;;;;16.19;43.50;96130.34;5073994;28;19998;-68
2023/03/18 08:55:12;;;;;;;;;;;;;;;16.18;43.23;96130.59;5074048;28;19964;-69
2023/03/18 08:57:38;;;;;;;;;;;;;;;16.11;44.18;96128.22;5073479;28;20295;-69
2023/03/18 09:00:04;;;;;;;;;;;;;;;15.94;43.82;96125.78;5073504;28;19951;-69
2023/03/18 09:02:30;;;;;;;;;;;;;;;15.97;45.39;96129.75;5074698;28;19943;-68
2023/03/18 09:04:57;;;;;;;;;;;;;;;15.93;43.90;96126.03;5073806;28;19941;-70
2023/03/18 09:07:23;;;;;;;;;;;;;;;15.86;43.57;96120.22;5074440;28;19943;-86
2023/03/18 09:09:49;;;;;;;;;;;;;;;15.87;44.25;96116.50;5074265;28;19961;-72
2023/03/18 09:12:15;;;;;;;;;;;;;;;15.87;43.88;96117.28;5074067;28;20411;-87
2023/03/18 09:14:42;;;;;;;;;;;;;;;15.95;45.44;96116.78;5074289;28;19938;-87
2023/03/18 09:17:08;;;;;;;;;;;;;;;16.26;44.96;96111.59;5073628;28;20378;-88
2023/03/18 09:19:35;;;;;;;;;;;;;;;16.52;43.46;96109.75;5074354;28;19944;-88
2023/03/18 09:22:01;;;;;;;;;;;;;;;16.70;43.16;96102.38;5074225;28;19940;-88
2023/03/18 09:24:27;;;;;;;;;;;;;;;16.60;41.83;96108.44;5073671;28;19989;-89
2023/03/18 09:26:52;;;;;;;;;;;;;;;16.54;41.28;96106.84;5073562;28;19976;-72
2023/03/18 09:29:18;;;;;;;;;;;;;;;16.66;43.90;96104.72;5073560;28;19990;-72
2023/03/18 09:31:44;;;;;;;;;;;;;;;16.87;41.66;96102.13;5072326;28;19962;-72
2023/03/18 09:34:12;;;;;;;;;;;;;;;16.80;41.87;96105.81;5074370;28;19988;-72
2023/03/18 09:36:38;;;;;;;;;;;;;;;16.74;41.28;96096.25;5074332;28;19952;-72
2023/03/18 09:39:05;;;;;;;;;;;;;;;16.76;41.07;96090.72;5073582;28;20327;-72
2023/03/18 09:41:37;;;;;;;;;;;;;;;16.73;40.60;96094.66;5073712;28;19946;-72
2023/03/18 09:44:22;;;;;;;;;;;;;;;16.73;41.76;96094.66;5073438;28;19939;-72
2023/03/18 09:47:04;;;;;;;;;;;;;;;16.64;41.07;96093.63;5072793;28;19945;-69
2023/03/18 09:49:31;;;;;;;;;;;;;;;16.49;40.89;96091.75;5072801;28;19946;-69
2023/03/18 09:52:20;;;;;;;;;;;;;;;16.44;40.12;96095.19;5072026;28;19954;-69
2023/03/18 09:55:01;;;;;;;;;;;;;;;16.63;41.50;96086.72;5073861;28;20293;-68
2023/03/18 09:57:38;;;;;;;;;;;;;;;16.82;39.38;96087.81;5073932;28;19936;-71
2023/03/18 10:00:24;;;;;;;;;;;;;;;16.88;37.96;96083.28;5073829;28;20366;-69
2023/03/18 10:02:56;;;;;;;;;;;;;;;16.90;38.17;96085.69;5073187;28;19937;-70
2023/03/18 10:05:29;;;;;;;;;;;;;;;16.91;40.04;96084.63;5073690;28;20305;-68
2023/03/18 10:07:59;;;;;;;;;;;;;;;16.90;38.08;96088.31;5074095;28;19938;-69
2023/03/18 10:10:28;;;;;;;;;;;;;;;16.93;38.34;96088.59;5075253;28;19953;-69
2023/03/18 10:13:01;;;;;;;;;;;;;;;16.92;38.32;96088.84;5077533;28;20396;-70
2023/03/18 10:15:35;;;;;;;;;;;;;;;16.99;39.37;96084.88;5077525;28;19943;-71
2023/03/18 10:18:09;;;;;;;;;;;;;;;17.07;36.82;96085.38;5077827;28;19942;-70
2023/03/18 10:20:50;;;;;;;;;;;;;;;17.10;37.33;96088.31;5077468;28;19947;-70
2023/03/18 10:23:25;;;;;;;;;;;;;;;17.20;38.65;96092.81;5077530;28;20328;-70
2023/03/18 10:25:55;;;;;;;;;;;;;;;17.36;38.77;96088.25;5077611;28;20377;-83
2023/03/18 10:28:40;;;;;;;;;;;;;;;17.44;39.21;96096.44;5076613;28;19969;-83
2023/03/18 10:31:30;;;;;;;;;;;;;;;17.28;36.69;96084.28;5077452;28;19965;-84
2023/03/18 10:34:22;;;;;;;;;;;;;;;17.34;38.15;96093.03;5076117;28;20303;-84
2023/03/18 10:36:50;;;;;;;;;;;;;;;17.45;37.36;96090.06;5074305;28;20426;-85
2023/03/18 10:39:18;;;;;;;;;;;;;;;17.58;36.29;96091.34;5077439;28;20254;-69
2023/03/18 10:41:48;;;;;;;;;;;;;;;17.60;37.63;96089.22;5075448;28;19940;-71
2023/03/18 10:44:25;;;;;;;;;;;;;;;17.53;37.46;96082.63;5077115;28;19937;-87
2023/03/18 10:46:57;;;;;;;;;;;;;;;17.68;35.12;96082.56;5076412;28;20317;-85
2023/03/18 10:49:26;;;;;;;;;;;;;;;17.67;36.52;96080.97;5077095;28;19946;-76
2023/03/18 10:52:04;;;;;;;;;;;;;;;17.72;36.56;96080.94;5076233;28;19955;-79
2023/03/18 10:54:42;;;;;;;;;;;;;;;17.66;34.38;96074.09;5077001;28;19943;-76
2023/03/18 10:57:11;;;;;;;;;;;;;;;17.75;34.06;96067.16;5077065;28;20264;-69
2023/03/18 10:59:38;;;;;;;;;;;;;;;17.92;34.47;96068.69;5076177;28;19944;-74
2023/03/18 11:02:10;;;;;;;;;;;;;;;18.12;34.22;96059.81;5076736;28;19935;-71
2023/03/18 11:04:53;;;;;;;;;;;;;;;18.30;34.25;96053.84;5076971;28;19947;-71
2023/03/18 11:07:22;;;;;;;;;;;;;;;18.35;32.57;96058.31;5076685;28;19940;-71
2023/03/18 11:09:48;;;;;;;;;;;;;;;18.45;34.44;96055.59;5076030;28;19942;-71
2023/03/18 11:12:17;;;;;;;;;;;;;;;18.59;34.00;96063.72;5076796;28;20006;-70
2023/03/18 11:14:47;;;;;;;;;;;;;;;18.64;33.53;96058.38;5076453;28;19931;-70
2023/03/18 11:17:26;;;;;;;;;;;;;;;18.76;32.42;96050.81;5076100;28;19947;-69
2023/03/18 11:20:09;;;;;;;;;;;;;;;18.82;31.83;96044.44;5075876;28;20385;-70
2023/03/18 11:22:36;;;;;;;;;;;;;;;18.90;32.33;96044.88;5076151;28;20414;-70
2023/03/18 11:25:05;;;;;;;;;;;;;;;19.09;32.29;96039.63;5074579;28;19943;-70
2023/03/18 11:27:36;;;;;;;;;;;;;;;19.20;31.78;96039.25;5075545;28;19968;-70
2023/03/18 11:30:09;;;;;;;;;;;;;;;19.08;31.28;96043.38;5076221;28;19952;-70
2023/03/18 11:32:35;;;;;;;;;;;;;;;18.96;31.83;96036.59;5076199;28;19940;-70
2023/03/18 11:35:06;;;;;;;;;;;;;;;19.02;32.97;96040.78;5076147;28;20387;-70
2023/03/18 11:37:36;;;;;;;;;;;;;;;19.21;31.51;96043.50;5076382;28;19963;-70
2023/03/18 11:40:22;;;;;;;;;;;;;;;19.40;33.36;96048.06;5074326;28;19941;-70
2023/03/18 11:42:53;;;;;;;;;;;;;;;19.43;29.96;96037.66;5074269;28;19941;-71
2023/03/18 11:45:25;;;;;;;;;;;;;;;19.30;29.20;96037.53;5074803;28;19937;-69
2023/03/18 11:47:52;;;;;;;;;;;;;;;19.32;30.52;96035.41;5075289;28;19937;-70
2023/03/18 11:50:19;;;;;;;;;;;;;;;19.42;29.03;96036.09;5075411;28;19943;-69
2023/03/18 11:52:52;;;;;;;;;;;;;;;19.52;29.94;96027.19;5057382;28;19942;-70
2023/03/18 11:55:18;;;;;;;;;;;;;;;19.58;30.22;96031.38;5074838;28;19955;-72
2023/03/18 11:58:03;;;;;;;;;;;;;;;19.78;30.36;96024.22;5075175;28;19943;-70
2023/03/18 12:00:44;;;;;;;;;;;;;;;19.81;27.71;96019.13;5075572;28;20396;-72
2023/03/18 12:03:26;;;;;;;;;;;;;;;19.74;28.38;96017.88;5074961;28;19952;-70
2023/03/18 12:06:07;;;;;;;;;;;;;;;19.69;30.22;96018.72;5074160;28;19950;-71
2023/03/18 12:08:40;;;;;;;;;;;;;;;19.80;30.00;96012.22;5074825;28;19938;-72
2023/03/18 12:11:24;;;;;;;;;;;;;;;19.95;27.29;96007.75;5075348;28;19960;-70
2023/03/18 12:14:03;;;;;;;;;;;;;;;20.10;29.79;96009.41;5075395;28;19946;-72
2023/03/18 12:16:29;;;;;;;;;;;;;;;20.31;30.40;96004.56;5074406;28;19951;-85
2023/03/18 12:19:07;;;;;;;;;;;;;;;20.46;29.11;96001.66;5074877;28;19931;-87
2023/03/18 12:21:48;;;;;;;;;;;;;;;20.46;29.21;95994.44;5074157;28;19938;-86
2023/03/18 12:24:17;;;;;;;;;;;;;;;20.32;29.85;95990.16;5074680;28;19945;-84
2023/03/18 12:26:44;;;;;;;;;;;;;;;20.26;29.50;95989.44;5074370;28;20324;-86
2023/03/18 12:29:19;;;;;;;;;;;;;;;20.28;28.64;95984.63;5075357;28;19950;-71
2023/03/18 12:32:00;;;;;;;;;;;;;;;20.18;29.06;95992.78;5074085;28;19955;-71
2023/03/18 12:34:41;;;;;;;;;;;;;;;20.14;29.24;95981.13;5074650;28;20391;-73
2023/03/18 12:37:19;;;;;;;;;;;;;;;19.95;28.26;95973.16;5075220;28;19958;-72
2023/03/18 12:39:46;;;;;;;;;;;;;;;19.91;28.80;95977.47;5075185;28;19943;-72
2023/03/18 12:42:37;;;;;;;;;;;;;;;20.06;29.82;95980.72;5074805;28;19935;-72
2023/03/18 12:45:19;;;;;;;;;;;;;;;20.26;28.12;95979.59;5074801;28;19934;-72
2023/03/18 12:48:15;;;;;;;;;;;;;;;20.30;28.19;95979.00;5073037;28;19951;-68
2023/03/18 12:50:46;;;;;;;;;;;;;;;20.32;27.95;95979.50;5073935;28;19959;-68
2023/03/18 12:53:12;;;;;;;;;;;;;;;20.44;29.34;95977.19;5074615;28;19940;-83
2023/03/18 12:55:39;;;;;;;;;;;;;;;20.61;28.82;95971.31;5072957;28;19943;-84
2023/03/18 12:58:09;;;;;;;;;;;;;;;20.66;28.64;95969.38;5074920;28;19940;-84
2023/03/18 13:00:40;;;;;;;;;;;;;;;20.72;28.34;95967.38;5074109;28;20396;-82